Cory, CO (81414)

10:55 AM MDT on August 04, 2015 (GMT -0600)
KCOAUSTI3 | | Change Station
CLOSE
Current Station
Personal Weather Station
Location: Austin, CO
Elevation: 5837 ft
Nearby Weather Stations

Elev 5837 ft 38.82 °N, 107.95 °W | Updated 5 minutes ago

Clear
Clear
88.5 °F
Feels Like 86 °F
N
0.0
Wind Variable Wind from NE

Today
High -- | Low -- °F
--% Chance of Precip.
Yesterday
High -- | Low -- °F
Precip. -- in
6:15 AM 8:19 PM
Waning Gibbous, 76% visible
Pressure 30.20 in
Visibility 7.0 miles
Clouds Clear
Heat Index 86 °F
Dew Point 53 °F
Humidity 30%
Rainfall 0.37 in
Snow Depth Not available.
UV 8 out of 12
Pollen 7.10 out of 12
Air Quality Not available.
Flu Activity Not available.
METAR KAJZ 041635Z AUTO 00000KT 7SM CLR 25/09 A3020 RMK AO2 T02490090

More Conditions Fewer Conditions

Pressure 30.20 in
Visibility 7.0 miles
Clouds Clear
Heat Index 86 °F
Dew Point 53 °F
Humidity 30%
Rainfall 0.37 in
Snow Depth Not available.
UV 8 out of 12
Pollen 7.10 out of 12
Air Quality Not available.
Flu Activity Not available.
METAR KAJZ 041635Z AUTO 00000KT 7SM CLR 25/09 A3020 RMK AO2 T02490090

More Conditions Fewer Conditions

10-Day Weather Forecast

×

Almanac

Astronomy

Aug. 04, 2015 Rise Set
Actual Time
Civil Twilight
Nautical Twilight
Astronomical Twilight
Moon
Length of Visible Light
Length of Day
Tomorrow will be .
, % of the Moon is Illuminated

Today's Extremes

State Highs State Lows

Community

WunderPhotos

Upload Photos

1,843,920 photos uploaded!

WunderBlogs® & News

Nearby

Air Quality

  Air Quality AQ Index Pollutant
Not available.

Snow Depth

Station Depth Elevation

Earthquake Activity

City Distance Mag. Time & Date
Minimum magnitude displayed is 2.5.

Coastal Water Temperatures

Place Temperature

Stations

Nearby Weather Stations

Station Location Temp. Windchill Dew Point Humidity Wind Precip. Elev Updated Type